Alice, Texas
Current Conditions -  °F | °C
As of 12:53 PM on Monday 20 Oct 2014 (Local Time) from KALI Reporting Station
Broken Clouds Broken Clouds  
Wind Chill: 85°   Ceiling: 5500
Heat Index: 88°   Visibility: 10mi
Dew Point: 68°   Wind: 8mph
Humidity: 57%   Direction: 100°E
Pressure: 29.98"   Gusts: NA
Location:  27.75°N, 98.06°W
Report Text: KALI 201753Z AUTO 10007KT 10SM SCT035 SCT045 BKN055 29/20 A2998 RMK AO2 SLP150 T02940200 10300 20211 58010
Loading
Personal Weather Stations






























Interactive Weather Map
Tropical Storm Tracking
New forecast layout! Learn more

10-Day Weather Forecast

Advertisements
Track Severe Weather on mobile